Melbourne International Airport
KMLB : now visible

Airfield :











YOU CAN JOIN US ON...

 
LOGIN :

Register | Disclaimer

   EN    FR    IT 

 









Legend :    VFR   Marginal VFR   IFR   Intensive IFR   Very Intensive IFR
Visi :
Ceiling :
>= 8 km
>= 3000ft
5 to 8 km
1000 to 3000 ft
1500m to 5 km
500 to 1000 ft
800 to 1500m
200 to 500 ft
< 800m
< 200 ft
Symbols :   Thunderstorms  Fog  Heavy snow  Heavy precipitations  Wind > 20 kt







- Airport Elevation : 33 ft
- IATA code : MLB


KMLB - Melbourne International

CURRENT METAR :
  • 200931Z AUTO 12012G24KT 10SM SCT016 BKN032 OVC080 24/22 A3002 RMK AO2 RAE0859 P0000 T02440217

EXPIRED METARs :
  • 200923Z AUTO 11017G25KT 10SM SCT014 BKN021 OVC042 25/22 A3002 RMK AO2 RAE0859 P0000 T02500217
  • 200853Z AUTO 10013KT 10SM -RA SCT031 BKN055 OVC085 26/22 A3001 RMK AO2 RAB50 SLP161 P0000 60000 T02610222 55004
  • 200753Z AUTO 08017G25KT 10SM SCT029 BKN050 BKN065 27/21 A3000 RMK AO2 SLP159 T02670206
  • 200653Z AUTO 08017G24KT 10SM FEW029 FEW042 26/21 A3001 RMK AO2 SLP161 T02610206

TAF KMLB
Valid from the 20 at 09:00 until the 21 at 06:00 UTC


200921Z 2009/2106 08014G21KT P6SM VCSH SCT025 SCT050 BKN080
TEMPO 2009/2011 5SM SHRA SCT015 BKN020
FM201800 08016G25KT P6SM FEW030 SCT040
No reported NOTAMs for that airfield.



MET'MAP, your aeronautical weather chart ! - Copyright ORBIFLY December 2007 - Disclaimer

ORBIFLY MET'MAP TEAM :

Programming & Development : Alexandra Zaïnal
Concept & Development : Baudouin d'Aumeries
Co-Development & Prog : Marc-Olivier Méhu
Technical & hardware support : Manuel Goepfert

Contact : metmap@orbifly.com




SOURCES & CREDITS :

   NOAA       Earth
Advisory